Huvudsida
METAR-TAF:

METAR-TAF

Flygplatser :

Brønnøysunds flygplats. Brønnøy

Brønnøysund, Norge

latitud: 65-28N, longitud: 012-13E, höjd: 0 m

Aktuellt väderrapport

Denna rapport gjordes för 27 minuter sedan, klockan 09:20 UTC
Vind 7 kt från nord
Temperatur 11°C
Fuktighet 66%
Tryck 1034 hPa
Sikt 10 km eller mer

METAR: ENBN 270920Z AUTO 35007KT 9999NDV OVC110/// 11/05 Q1034

Tid: 11:47 (09:47 UTC)


TAF: saknas

Aktuella väderrapporter och prognoser från 4000 flygplatser (METAR- och TAF-rapporter).

De tillgängliga stationerna syns som gula och röda prickar på kartan.

För musen över prickarna för att se namnen på stationerna.

Klicka sedan för att få väderrapporter och prognoser.

För att ändra kartan: Klicka på de gröna knapparna med ett svart kors på för att zooma in; den gröna knappen med ett streck på för att zooma ut; eller på de gröna pilarna för angränsande kartor.


METAR-TAF: